Etusivu
METAR-TAF:

METAR-TAF

Lentoasemat :

Whistler, Brittiläinen Kolumbia, Kanada

Leveyspiiri: 50-08N, Pituuspiiri: 122-57W, korkeus merenpinnasta: 658 m

Tämänhetkinen sää

Tämä raportti tehtiin 20 minuuttia sitten, kello 17.00 UTC
tyyntä
Lämpötila 5°C
Kosteus 100%
Ilmanpaine 1022 hPa
Näkyvyys: 24.1 km
Pilvistä 400 ft:n korkeudessa

METAR: CWAE 131700Z 00000KT 15SM OVC004 05/05 A3018 RMK SC8 WND ESTD SLP234

Aika: 09:20 (17:20 UTC)


TAF: puuttuu

Säähavainnot ja -ennusteet yli 4000 lentoasemalta (METAR- ja TAF-raportit).

Käytössä olevat sääasemat on merkitty karttaan keltaisilla ja punaisilla pisteillä.

Aseta hiiri pisteen päälle nähdäksesi sääaseman nimen.

Klikkaa sitten nähdäksesi säähavainnot ja -ennusteet.

Kartan vaihtaminen: klikkaa mustalla rastilla varustettuja vihreitä pisteitä, niin voit zoomata sisään; viivalla varustettua vihreää pistettä, niin voit zoomata ulos tai vihreitä nuolia, niin pääset viereisille kartoille.


METAR-TAF: